Time;durP1;ratioP1;P1;durP2;ratioP2;P2;SDS_P1;SDS_P2;PMS_P1;PMS_P2;Temp;Humidity;BMP_temperature;BMP_pressure;BME280_temperature;BME280_humidity;BME280_pressure;Samples;Min_cycle;Max_cycle;Signal;HPM_P1;HPM_P2
2023/11/01 00:01:21;;;;;;;0.50;0.50;;;;;;;11.25;100.00;100269.50;10459836;28;20036;-82
2023/11/01 00:06:22;;;;;;;0.50;0.50;;;;;;;11.27;100.00;100258.44;10460815;28;20040;-82
2023/11/01 00:11:22;;;;;;;0.50;0.50;;;;;;;11.27;100.00;100234.88;10480010;28;20081;-84
2023/11/01 00:16:23;;;;;;;0.40;0.40;;;;;;;11.28;100.00;100233.00;10462726;28;20036;-84
2023/11/01 00:21:23;;;;;;;0.50;0.50;;;;;;;11.24;100.00;100229.91;10476616;28;20052;-84
2023/11/01 00:26:24;;;;;;;1.02;1.02;;;;;;;11.25;100.00;100236.97;10477089;28;20047;-82
2023/11/01 00:31:24;;;;;;;0.50;0.50;;;;;;;11.31;100.00;100238.81;10459605;28;20072;-84
2023/11/01 00:36:24;;;;;;;1.70;1.60;;;;;;;11.33;100.00;100225.06;10478847;28;20134;-83
2023/11/01 00:41:25;;;;;;;0.35;0.35;;;;;;;11.30;100.00;100241.75;10464701;28;20048;-84
2023/11/01 00:46:25;;;;;;;0.80;0.80;;;;;;;11.31;100.00;100237.97;10467527;28;20033;-83
2023/11/01 00:51:26;;;;;;;0.38;0.38;;;;;;;11.32;100.00;100235.03;10467718;28;20033;-84
2023/11/01 00:56:26;;;;;;;0.93;0.93;;;;;;;11.35;100.00;100231.88;10473602;28;20037;-82
2023/11/01 01:01:26;;;;;;;0.50;0.50;;;;;;;11.41;100.00;100230.19;10468580;28;20044;-81
2023/11/01 01:06:27;;;;;;;0.50;0.50;;;;;;;11.41;100.00;100224.78;10491607;28;20040;-82
2023/11/01 01:11:27;;;;;;;0.68;0.68;;;;;;;11.43;100.00;100213.72;10492725;28;20041;-81
2023/11/01 01:16:28;;;;;;;0.75;0.75;;;;;;;11.45;100.00;100204.28;10492056;28;20033;-82
2023/11/01 01:21:28;;;;;;;0.30;0.30;;;;;;;11.45;100.00;100188.03;10495040;28;20044;-83
2023/11/01 01:26:29;;;;;;;0.52;0.52;;;;;;;11.40;100.00;100174.31;10507099;28;20037;-81
2023/11/01 01:31:29;;;;;;;0.40;0.40;;;;;;;11.40;100.00;100177.03;10487124;28;20031;-84
2023/11/01 01:36:30;;;;;;;0.60;0.60;;;;;;;11.35;100.00;100174.97;10488915;28;20025;-82
2023/11/01 01:41:30;;;;;;;0.70;0.70;;;;;;;11.33;100.00;100171.66;10497691;28;20036;-81
2023/11/01 01:46:31;;;;;;;0.85;0.85;;;;;;;11.28;100.00;100157.94;10487833;28;20033;-83
2023/11/01 01:51:31;;;;;;;0.70;0.70;;;;;;;11.24;100.00;100145.06;10492183;28;20029;-82
2023/11/01 01:56:32;;;;;;;1.00;1.00;;;;;;;11.19;100.00;100132.16;10488951;28;20048;-82
2023/11/01 02:01:32;;;;;;;0.75;0.75;;;;;;;11.17;100.00;100131.56;10446168;28;20063;-77
2023/11/01 02:06:32;;;;;;;0.43;0.43;;;;;;;11.15;100.00;100125.53;10460737;28;20032;-77
2023/11/01 02:11:36;;;;;;;0.70;0.70;;;;;;;11.20;100.00;100108.59;10461092;28;20033;-77
2023/11/01 02:16:36;;;;;;;0.47;0.47;;;;;;;11.14;100.00;100116.56;10461571;28;20460;-77
2023/11/01 02:21:37;;;;;;;0.90;0.90;;;;;;;11.12;100.00;100099.69;10458929;28;20052;-77
2023/11/01 02:26:37;;;;;;;0.65;0.65;;;;;;;11.09;100.00;100099.31;10459627;28;20040;-77
2023/11/01 02:31:37;;;;;;;0.40;0.40;;;;;;;11.05;100.00;100092.66;10460899;28;20057;-77
2023/11/01 02:36:38;;;;;;;2.85;2.70;;;;;;;11.10;100.00;100090.97;10462013;28;20341;-77
2023/11/01 02:41:38;;;;;;;0.70;0.70;;;;;;;11.18;100.00;100084.44;10461011;28;20113;-77
2023/11/01 02:46:39;;;;;;;0.50;0.50;;;;;;;11.18;100.00;100068.16;10460066;28;20464;-77
2023/11/01 02:51:39;;;;;;;0.45;0.45;;;;;;;11.21;100.00;100062.31;10460767;28;20071;-77
2023/11/01 02:56:40;;;;;;;0.50;0.50;;;;;;;11.20;100.00;100057.09;10459406;28;20041;-77
2023/11/01 03:01:42;;;;;;;0.40;0.40;;;;;;;11.18;100.00;100054.63;10459209;28;20048;-77
2023/11/01 03:06:42;;;;;;;2.17;1.13;;;;;;;11.16;100.00;100060.25;10459242;28;20044;-77
2023/11/01 03:11:42;;;;;;;0.50;0.50;;;;;;;11.20;100.00;100055.25;10458751;28;20040;-78
2023/11/01 03:16:43;;;;;;;1.77;1.67;;;;;;;11.15;100.00;100050.47;10458008;28;20040;-78
2023/11/01 03:21:43;;;;;;;0.60;0.60;;;;;;;11.14;100.00;100043.41;10461144;28;20053;-78
2023/11/01 03:26:44;;;;;;;0.93;0.93;;;;;;;11.13;100.00;100027.34;10458736;28;20037;-77
2023/11/01 03:31:44;;;;;;;0.70;0.70;;;;;;;11.21;100.00;100028.97;10458661;28;20041;-78
2023/11/01 03:36:44;;;;;;;0.77;0.77;;;;;;;11.21;100.00;100021.66;10457560;28;20033;-77
2023/11/01 03:41:45;;;;;;;0.68;0.68;;;;;;;11.25;100.00;100014.72;10456327;28;20025;-77
2023/11/01 03:46:46;;;;;;;1.20;1.20;;;;;;;11.24;100.00;100006.84;10457495;28;20044;-77
2023/11/01 03:51:46;;;;;;;0.60;0.60;;;;;;;11.27;100.00;99996.38;10458768;28;20036;-77
2023/11/01 03:56:47;;;;;;;2.35;2.25;;;;;;;11.33;100.00;100000.06;10456639;28;20057;-77
2023/11/01 04:01:47;;;;;;;0.50;0.50;;;;;;;11.33;100.00;99998.19;10456699;28;20037;-77
2023/11/01 04:06:47;;;;;;;2.15;1.95;;;;;;;11.34;100.00;99985.47;10472615;28;20240;-77
2023/11/01 04:11:48;;;;;;;0.50;0.50;;;;;;;11.43;100.00;99988.72;10456690;28;20449;-78
2023/11/01 04:16:48;;;;;;;0.55;0.55;;;;;;;11.51;100.00;99991.94;10455984;28;20091;-77
2023/11/01 04:21:49;;;;;;;1.73;1.73;;;;;;;11.49;100.00;99987.81;10454355;28;20497;-77
2023/11/01 04:26:52;;;;;;;2.45;2.05;;;;;;;11.61;100.00;99977.84;10455259;28;20495;-77
2023/11/01 04:31:52;;;;;;;1.02;1.02;;;;;;;11.61;100.00;99969.72;10456996;28;20040;-78
2023/11/01 04:36:53;;;;;;;0.60;0.60;;;;;;;11.66;100.00;99967.16;10456944;28;20037;-77
2023/11/01 04:41:53;;;;;;;0.50;0.50;;;;;;;11.74;100.00;99968.72;10455409;28;20037;-77
2023/11/01 04:46:54;;;;;;;0.88;0.88;;;;;;;11.83;100.00;99960.03;10454253;28;20442;-77
2023/11/01 04:51:54;;;;;;;0.40;0.40;;;;;;;11.87;100.00;99963.19;10455591;28;20033;-77
2023/11/01 04:56:55;;;;;;;1.13;1.10;;;;;;;11.93;100.00;99947.84;10453863;28;20040;-79
2023/11/01 05:01:56;;;;;;;1.38;1.38;;;;;;;12.03;100.00;99945.44;10438336;28;20040;-79
2023/11/01 05:06:56;;;;;;;0.98;0.98;;;;;;;12.09;100.00;99944.47;10454281;28;20108;-81
2023/11/01 05:11:57;;;;;;;1.95;1.85;;;;;;;12.13;100.00;99942.97;10470063;28;20055;-80
2023/11/01 05:16:57;;;;;;;0.50;0.50;;;;;;;12.18;100.00;99934.13;10454508;28;20037;-78
2023/11/01 05:21:58;;;;;;;1.45;1.35;;;;;;;12.27;100.00;99930.84;10455057;28;20049;-78
2023/11/01 05:26:59;;;;;;;0.50;0.50;;;;;;;12.28;100.00;99921.66;10469607;28;20110;-78
2023/11/01 05:32:00;;;;;;;0.60;0.60;;;;;;;12.26;100.00;99929.22;10453321;28;20452;-77
2023/11/01 05:37:00;;;;;;;0.50;0.50;;;;;;;12.27;100.00;99922.72;10451967;28;20033;-78
2023/11/01 05:42:01;;;;;;;0.60;0.60;;;;;;;12.30;100.00;99924.13;10455017;28;20021;-79
2023/11/01 05:47:01;;;;;;;1.67;1.63;;;;;;;12.27;100.00;99917.28;10455217;28;20116;-78
2023/11/01 05:52:02;;;;;;;0.70;0.70;;;;;;;12.28;100.00;99916.25;10454543;28;20384;-77
2023/11/01 05:57:03;;;;;;;7.47;3.10;;;;;;;12.33;100.00;99904.66;10413301;28;20046;-78
2023/11/01 06:02:05;;;;;;;0.57;0.57;;;;;;;12.23;100.00;99907.97;10493893;28;20029;-78
2023/11/01 06:07:05;;;;;;;0.52;0.52;;;;;;;12.23;100.00;99913.38;10494246;28;20024;-80
2023/11/01 06:12:06;;;;;;;1.05;1.05;;;;;;;12.23;100.00;99902.53;10495413;28;20586;-79
2023/11/01 06:17:06;;;;;;;0.50;0.50;;;;;;;12.19;100.00;99905.91;10495605;28;20090;-77
2023/11/01 06:22:06;;;;;;;0.60;0.60;;;;;;;12.16;100.00;99901.81;10492823;28;20056;-78
2023/11/01 06:27:07;;;;;;;0.40;0.40;;;;;;;12.11;100.00;99901.66;10494763;28;20136;-78
2023/11/01 06:32:09;;;;;;;0.40;0.40;;;;;;;12.07;100.00;99904.03;10509155;28;20436;-78
2023/11/01 06:37:09;;;;;;;4.05;2.72;;;;;;;12.11;100.00;99898.94;10492424;28;20037;-79
2023/11/01 06:42:10;;;;;;;0.68;0.68;;;;;;;12.10;100.00;99897.31;10509955;28;20522;-78
2023/11/01 06:47:10;;;;;;;1.63;1.52;;;;;;;12.10;100.00;99903.56;10499434;28;20036;-79
2023/11/01 06:52:11;;;;;;;0.60;0.60;;;;;;;12.10;100.00;99892.69;10502571;28;20115;-77
2023/11/01 06:57:11;;;;;;;0.50;0.50;;;;;;;12.07;100.00;99886.91;10502729;28;20043;-78
2023/11/01 07:02:12;;;;;;;1.08;1.08;;;;;;;12.00;100.00;99889.72;10517106;28;20165;-79
2023/11/01 07:07:12;;;;;;;0.50;0.50;;;;;;;12.08;100.00;99888.56;10513107;28;20040;-81
2023/11/01 07:12:12;;;;;;;4.68;2.90;;;;;;;12.13;100.00;99896.84;10508468;28;20029;-81
2023/11/01 07:17:13;;;;;;;1.25;1.25;;;;;;;12.22;100.00;99903.59;10506560;28;20044;-78
2023/11/01 07:22:13;;;;;;;0.40;0.40;;;;;;;12.28;100.00;99902.66;10520558;28;20096;-79
2023/11/01 07:27:14;;;;;;;0.47;0.47;;;;;;;12.30;100.00;99892.38;10502112;28;20453;-79
2023/11/01 07:32:14;;;;;;;0.63;0.63;;;;;;;12.37;100.00;99894.16;10501578;28;20037;-79
2023/11/01 07:37:15;;;;;;;0.50;0.50;;;;;;;12.37;100.00;99886.03;10500656;28;20033;-78
2023/11/01 07:42:15;;;;;;;0.50;0.50;;;;;;;12.39;100.00;99887.44;10499437;28;20089;-78
2023/11/01 07:47:16;;;;;;;0.50;0.50;;;;;;;12.39;100.00;99870.34;10500054;28;20095;-78
2023/11/01 07:52:16;;;;;;;0.50;0.50;;;;;;;12.40;100.00;99864.66;10498597;28;20040;-77
2023/11/01 07:57:16;;;;;;;0.70;0.70;;;;;;;12.37;100.00;99865.13;10497924;28;20060;-78
2023/11/01 08:02:17;;;;;;;1.60;1.50;;;;;;;12.41;100.00;99863.63;10498187;28;20357;-78
2023/11/01 08:07:17;;;;;;;1.00;1.00;;;;;;;12.44;100.00;99868.53;10499202;28;20094;-77
2023/11/01 08:12:19;;;;;;;0.47;0.47;;;;;;;12.49;100.00;99862.44;10499024;28;20112;-78
2023/11/01 08:17:19;;;;;;;5.80;3.50;;;;;;;12.62;100.00;99856.75;10499511;28;20044;-77
2023/11/01 08:22:19;;;;;;;0.70;0.70;;;;;;;12.59;100.00;99849.09;10499610;28;20044;-78
2023/11/01 08:27:20;;;;;;;0.73;0.73;;;;;;;12.67;100.00;99846.03;10496778;28;20440;-78
2023/11/01 08:32:20;;;;;;;6.25;2.85;;;;;;;12.88;100.00;99839.13;10496890;28;20036;-78
2023/11/01 08:37:22;;;;;;;0.73;0.73;;;;;;;13.01;100.00;99833.44;10497397;28;20484;-77
2023/11/01 08:42:22;;;;;;;0.57;0.57;;;;;;;13.13;100.00;99827.97;10496037;28;20064;-77
2023/11/01 08:47:39;;;;;;;1.20;1.20;;;;;;;13.13;100.00;99827.16;10496323;28;20145;-77
2023/11/01 08:52:40;;;;;;;0.93;0.93;;;;;;;13.18;100.00;99817.22;10496299;28;20077;-78
2023/11/01 08:57:41;;;;;;;0.50;0.50;;;;;;;13.26;100.00;99821.47;10496594;28;20510;-77
2023/11/01 09:02:41;;;;;;;2.10;2.00;;;;;;;13.32;100.00;99815.06;10496089;28;20036;-77
2023/11/01 09:07:42;;;;;;;0.82;0.82;;;;;;;13.46;100.00;99805.56;10496855;28;20114;-76
2023/11/01 09:12:42;;;;;;;0.50;0.50;;;;;;;13.41;100.00;99821.78;10495618;28;20495;-77
2023/11/01 09:17:42;;;;;;;0.50;0.50;;;;;;;13.40;100.00;99813.84;10496262;28;20036;-78
2023/11/01 09:22:43;;;;;;;0.47;0.47;;;;;;;13.57;100.00;99809.28;10495940;28;20048;-79
2023/11/01 09:27:43;;;;;;;0.63;0.63;;;;;;;13.76;100.00;99809.91;10495473;28;20055;-78
2023/11/01 09:32:44;;;;;;;18.48;4.22;;;;;;;13.81;100.00;99790.94;10493767;28;20032;-78
2023/11/01 09:37:44;;;;;;;7.28;3.72;;;;;;;13.87;100.00;99792.66;10493483;28;20044;-78
2023/11/01 09:42:45;;;;;;;3.05;2.20;;;;;;;13.82;100.00;99797.22;10493347;28;20032;-78
2023/11/01 09:47:46;;;;;;;7.88;2.80;;;;;;;13.68;100.00;99804.84;10494309;28;20083;-78
2023/11/01 09:52:46;;;;;;;3.15;2.40;;;;;;;13.69;100.00;99795.63;10495389;28;20041;-80
2023/11/01 09:57:46;;;;;;;8.35;2.85;;;;;;;13.59;100.00;99796.28;10494844;28;20157;-79
2023/11/01 10:02:47;;;;;;;6.82;3.38;;;;;;;13.57;100.00;99803.84;10495609;28;20154;-78
2023/11/01 10:07:47;;;;;;;8.88;3.10;;;;;;;13.69;100.00;99788.28;10496502;28;20101;-79
2023/11/01 10:12:48;;;;;;;8.93;2.95;;;;;;;13.77;100.00;99786.25;10495740;28;20091;-78
2023/11/01 10:17:51;;;;;;;7.63;3.58;;;;;;;14.10;100.00;99778.09;10504592;28;20048;-79
2023/11/01 10:22:51;;;;;;;12.43;3.33;;;;;;;14.48;100.00;99784.63;10521462;28;20055;-77
2023/11/01 10:27:52;;;;;;;7.80;2.25;;;;;;;14.52;100.00;99772.22;10540885;28;20113;-79
2023/11/01 10:32:56;;;;;;;2.55;2.35;;;;;;;14.57;100.00;99752.38;10528818;28;20140;-79
2023/11/01 10:38:00;;;;;;;7.72;3.47;;;;;;;14.68;100.00;99739.69;10508989;28;20032;-79
2023/11/01 10:43:02;;;;;;;9.73;4.25;;;;;;;14.42;100.00;99744.78;10501620;28;20028;-80
2023/11/01 10:48:03;;;;;;;12.10;3.10;;;;;;;14.36;100.00;99753.97;10501730;28;20068;-79
2023/11/01 10:53:03;;;;;;;5.25;3.00;;;;;;;13.99;100.00;99723.72;10509277;28;20062;-80
2023/11/01 10:58:05;;;;;;;5.80;2.10;;;;;;;13.90;100.00;99723.31;10508375;28;20039;-79
2023/11/01 11:03:11;;;;;;;8.10;3.40;;;;;;;13.62;100.00;99710.63;10501251;28;20119;-78
2023/11/01 11:08:11;;;;;;;15.07;3.50;;;;;;;13.85;100.00;99701.50;10501651;28;20072;-79
2023/11/01 11:13:17;;;;;;;7.22;3.17;;;;;;;13.92;100.00;99699.41;10518546;28;20068;-80
2023/11/01 11:18:21;;;;;;;10.60;3.00;;;;;;;14.03;100.00;99693.03;10501880;28;20135;-80
2023/11/01 11:23:31;;;;;;;5.93;2.95;;;;;;;14.23;100.00;99678.06;10500752;28;20119;-81
2023/11/01 11:28:32;;;;;;;8.15;2.30;;;;;;;14.51;100.00;99664.31;10500993;28;20118;-79
2023/11/01 11:33:52;;;;;;;6.82;3.15;;;;;;;14.67;100.00;99654.41;10499907;28;20097;-79
2023/11/01 11:38:56;;;;;;;4.65;3.63;;;;;;;14.68;100.00;99641.59;10500094;28;20044;-80
2023/11/01 11:44:12;;;;;;;4.63;2.15;;;;;;;14.86;100.00;99636.63;10498228;28;20024;-79
2023/11/01 11:49:24;;;;;;;7.37;2.80;;;;;;;14.89;100.00;99635.31;10500971;28;20101;-79
2023/11/01 11:54:32;;;;;;;8.15;2.85;;;;;;;15.13;100.00;99622.19;10500854;28;20021;-80
2023/11/01 11:59:34;;;;;;;11.20;3.70;;;;;;;15.31;100.00;99616.31;10498813;28;20484;-79
2023/11/01 12:04:34;;;;;;;4.78;2.58;;;;;;;15.19;100.00;99601.22;10498729;28;20162;-78
2023/11/01 12:09:35;;;;;;;4.20;1.90;;;;;;;15.10;100.00;99599.00;10499520;28;20036;-79
2023/11/01 12:14:37;;;;;;;7.97;2.33;;;;;;;14.97;100.00;99582.25;10515934;28;20424;-79
2023/11/01 12:19:44;;;;;;;3.28;2.55;;;;;;;14.96;100.00;99577.84;10498842;28;20155;-80
2023/11/01 12:24:45;;;;;;;2.05;1.95;;;;;;;15.14;100.00;99582.09;10498521;28;20049;-80
2023/11/01 12:29:45;;;;;;;5.88;2.60;;;;;;;15.08;100.00;99568.41;10499452;28;20525;-80
2023/11/01 12:34:46;;;;;;;13.02;2.83;;;;;;;15.11;100.00;99561.63;10500416;28;20110;-79
2023/11/01 12:39:59;;;;;;;10.15;3.90;;;;;;;15.18;100.00;99545.06;10497824;28;20119;-79
2023/11/01 12:44:59;;;;;;;4.55;1.85;;;;;;;15.06;100.00;99521.53;10498777;28;20090;-78
2023/11/01 12:50:00;;;;;;;6.72;2.70;;;;;;;15.08;100.00;99524.81;10481532;28;20086;-79
2023/11/01 12:55:00;;;;;;;3.95;2.25;;;;;;;14.78;100.00;99527.28;10500367;28;20059;-79
2023/11/01 13:00:01;;;;;;;7.30;2.20;;;;;;;14.99;100.00;99512.72;10498645;28;20135;-79
2023/11/01 13:05:02;;;;;;;11.68;2.78;;;;;;;15.03;100.00;99508.41;10498583;28;20549;-80
2023/11/01 13:10:03;;;;;;;3.28;1.95;;;;;;;14.89;100.00;99513.47;10495835;28;20124;-80
2023/11/01 13:15:03;;;;;;;3.85;1.83;;;;;;;14.71;100.00;99502.97;10512897;28;20387;-79
2023/11/01 13:20:05;;;;;;;3.20;2.08;;;;;;;14.85;100.00;99481.56;10499476;28;20045;-80
2023/11/01 13:25:07;;;;;;;6.72;3.50;;;;;;;14.77;100.00;99479.28;10495889;28;20464;-79
2023/11/01 13:30:09;;;;;;;2.97;2.00;;;;;;;14.88;100.00;99465.50;10496162;28;20492;-81
2023/11/01 13:35:10;;;;;;;5.57;2.67;;;;;;;14.80;100.00;99474.16;10495526;28;20040;-78
2023/11/01 13:40:10;;;;;;;4.65;2.55;;;;;;;14.49;100.00;99464.06;10494620;28;20029;-79
2023/11/01 13:45:11;;;;;;;4.97;1.77;;;;;;;14.39;100.00;99464.78;10495277;28;20028;-78
2023/11/01 13:50:11;;;;;;;4.28;2.20;;;;;;;14.37;100.00;99461.50;10495017;28;20180;-79
2023/11/01 13:55:12;;;;;;;14.82;3.75;;;;;;;14.39;100.00;99449.25;10494558;28;20063;-78
2023/11/01 14:00:13;;;;;;;3.03;2.72;;;;;;;14.25;100.00;99450.75;10495000;28;20045;-79
2023/11/01 14:05:13;;;;;;;4.72;2.88;;;;;;;14.08;100.00;99428.25;10494971;28;20037;-78
2023/11/01 14:10:13;;;;;;;3.65;1.77;;;;;;;13.75;100.00;99430.06;10495534;28;20057;-78
2023/11/01 14:15:20;;;;;;;7.70;2.78;;;;;;;13.41;100.00;99415.78;10495460;28;20112;-79
2023/11/01 14:20:21;;;;;;;7.90;3.40;;;;;;;13.11;100.00;99403.38;10464370;28;20086;-80
2023/11/01 14:25:21;;;;;;;4.65;2.45;;;;;;;12.98;100.00;99401.03;10505551;28;20700;-77
2023/11/01 14:30:21;;;;;;;3.42;2.10;;;;;;;12.89;100.00;99402.53;10509328;28;20404;-78
2023/11/01 14:35:22;;;;;;;3.80;2.15;;;;;;;12.70;100.00;99401.97;10499244;28;20113;-77
2023/11/01 14:40:22;;;;;;;4.35;3.35;;;;;;;12.48;100.00;99385.63;10510586;28;20044;-77
2023/11/01 14:45:23;;;;;;;2.03;1.92;;;;;;;12.34;100.00;99376.97;10495152;28;20080;-78
2023/11/01 14:50:24;;;;;;;2.70;1.95;;;;;;;12.33;100.00;99378.03;10495459;28;20052;-78
2023/11/01 14:55:24;;;;;;;5.05;2.65;;;;;;;12.36;100.00;99376.72;10493661;28;20066;-78
2023/11/01 15:00:25;;;;;;;4.75;2.13;;;;;;;12.42;100.00;99381.19;10494666;28;20047;-77
2023/11/01 15:05:25;;;;;;;7.65;2.90;;;;;;;12.55;100.00;99372.69;10496563;28;20039;-78
2023/11/01 15:10:26;;;;;;;5.10;1.90;;;;;;;12.63;100.00;99383.13;10516647;28;20518;-77
2023/11/01 15:15:26;;;;;;;3.08;1.70;;;;;;;12.74;100.00;99370.53;10500862;28;20464;-77
2023/11/01 15:20:27;;;;;;;6.72;1.70;;;;;;;12.64;100.00;99375.81;10499419;28;20373;-77
2023/11/01 15:25:27;;;;;;;1.33;1.23;;;;;;;12.60;100.00;99361.88;10499951;28;20064;-77
2023/11/01 15:30:27;;;;;;;5.35;2.47;;;;;;;12.55;100.00;99361.84;10500341;28;20032;-77
2023/11/01 15:35:28;;;;;;;9.57;2.15;;;;;;;12.59;100.00;99357.53;10501374;28;20071;-77
2023/11/01 15:40:28;;;;;;;2.50;1.85;;;;;;;12.61;100.00;99355.41;10498773;28;20029;-77
2023/11/01 15:45:29;;;;;;;2.38;1.77;;;;;;;12.51;100.00;99350.66;10501122;28;20040;-77
2023/11/01 15:50:29;;;;;;;5.90;1.83;;;;;;;12.45;100.00;99345.38;10500382;28;20127;-77
2023/11/01 15:55:30;;;;;;;6.45;2.30;;;;;;;12.52;100.00;99335.19;10481535;28;20041;-77
2023/11/01 16:00:31;;;;;;;2.88;2.30;;;;;;;12.50;100.00;99354.41;10515657;28;20087;-77
2023/11/01 16:05:31;;;;;;;2.70;2.50;;;;;;;12.32;100.00;99341.94;10500197;28;20450;-77
2023/11/01 16:10:32;;;;;;;5.35;1.80;;;;;;;12.22;100.00;99330.91;10500879;28;20099;-77
2023/11/01 16:15:32;;;;;;;6.55;2.97;;;;;;;12.00;100.00;99332.72;10499270;28;20391;-78
2023/11/01 16:20:33;;;;;;;2.30;2.13;;;;;;;11.94;100.00;99323.66;10498314;28;20049;-77
2023/11/01 16:25:33;;;;;;;1.90;1.73;;;;;;;11.85;100.00;99331.38;10514419;28;20447;-76
2023/11/01 16:30:34;;;;;;;1.80;1.70;;;;;;;11.85;100.00;99323.22;10498360;28;20056;-77
2023/11/01 16:35:34;;;;;;;3.25;2.20;;;;;;;11.81;100.00;99311.22;10499170;28;20047;-76
2023/11/01 16:40:34;;;;;;;5.38;2.30;;;;;;;11.80;100.00;99311.44;10513248;28;20028;-76
2023/11/01 16:45:36;;;;;;;3.88;2.50;;;;;;;11.72;100.00;99328.13;10498281;28;20112;-77
2023/11/01 16:50:36;;;;;;;9.13;1.92;;;;;;;11.67;100.00;99314.47;10497741;28;20040;-76
2023/11/01 16:55:37;;;;;;;4.88;2.78;;;;;;;11.61;100.00;99308.97;10512219;28;20123;-77
2023/11/01 17:00:39;;;;;;;1.92;1.83;;;;;;;11.59;100.00;99329.25;10497116;28;20068;-76
2023/11/01 17:05:39;;;;;;;4.07;2.40;;;;;;;11.80;100.00;99300.59;10496997;28;20036;-76
2023/11/01 17:10:40;;;;;;;9.63;3.50;;;;;;;11.80;100.00;99295.16;10496991;28;20325;-77
2023/11/01 17:15:40;;;;;;;2.38;2.17;;;;;;;11.63;100.00;99292.44;10495510;28;20049;-76
2023/11/01 17:20:41;;;;;;;8.10;2.70;;;;;;;11.57;100.00;99320.50;10495867;28;20107;-77
2023/11/01 17:25:45;;;;;;;7.72;2.95;;;;;;;11.54;100.00;99324.53;10493419;28;20041;-76
2023/11/01 17:30:45;;;;;;;6.25;2.83;;;;;;;11.47;100.00;99317.63;10495296;28;20379;-76
2023/11/01 17:35:45;;;;;;;2.72;2.28;;;;;;;11.39;100.00;99321.53;10496430;28;20119;-76
2023/11/01 17:40:53;;;;;;;6.53;1.85;;;;;;;11.32;100.00;99327.09;10496718;28;20039;-75
2023/11/01 17:45:53;;;;;;;3.28;2.05;;;;;;;11.26;100.00;99335.34;10495857;28;20495;-76
2023/11/01 17:50:54;;;;;;;2.97;2.22;;;;;;;11.26;100.00;99338.88;10495237;28;20071;-76
2023/11/01 17:55:54;;;;;;;8.13;2.65;;;;;;;11.24;100.00;99338.31;10494380;28;20094;-76
2023/11/01 18:00:55;;;;;;;5.93;2.25;;;;;;;11.17;100.00;99329.50;10510013;28;20035;-76
2023/11/01 18:05:55;;;;;;;11.18;2.55;;;;;;;11.11;100.00;99325.88;10494671;28;20053;-76
2023/11/01 18:10:56;;;;;;;4.18;1.98;;;;;;;11.04;100.00;99338.72;10493120;28;20044;-76
2023/11/01 18:16:00;;;;;;;2.33;2.05;;;;;;;11.05;100.00;99318.69;10494212;28;20028;-76
2023/11/01 18:21:08;;;;;;;9.40;2.75;;;;;;;11.00;100.00;99317.75;10493432;28;20364;-77
2023/11/01 18:26:10;;;;;;;1.98;1.83;;;;;;;10.89;100.00;99336.50;10494339;28;20040;-75
2023/11/01 18:31:34;;;;;;;2.13;1.85;;;;;;;10.83;100.00;99334.75;10493017;28;20036;-76
2023/11/01 18:36:44;;;;;;;8.50;2.30;;;;;;;10.77;100.00;99337.59;10495341;28;20058;-76
2023/11/01 18:41:44;;;;;;;4.57;2.70;;;;;;;10.75;100.00;99350.53;10498582;28;20447;-75
2023/11/01 18:46:44;;;;;;;2.47;2.28;;;;;;;10.71;100.00;99347.47;10501796;28;20052;-76
2023/11/01 18:51:57;;;;;;;5.50;2.33;;;;;;;10.70;100.00;99352.06;10500187;28;20459;-76
2023/11/01 18:56:58;;;;;;;7.28;2.55;;;;;;;10.65;100.00;99359.25;10502469;28;20036;-75
2023/11/01 19:01:58;;;;;;;3.05;2.13;;;;;;;10.63;100.00;99358.66;10500778;28;20101;-76
2023/11/01 19:07:01;;;;;;;2.95;2.45;;;;;;;10.62;100.00;99357.00;10516188;28;20036;-76
2023/11/01 19:12:01;;;;;;;4.22;2.35;;;;;;;10.52;100.00;99349.47;10482688;28;20444;-76
2023/11/01 19:17:02;;;;;;;2.35;2.15;;;;;;;10.50;100.00;99350.75;10515826;28;20127;-76
2023/11/01 19:22:03;;;;;;;5.22;4.03;;;;;;;10.39;100.00;99345.13;10481738;28;20059;-76
2023/11/01 19:27:04;;;;;;;11.63;2.97;;;;;;;10.33;100.00;99350.63;10500907;28;20116;-76
2023/11/01 19:32:04;;;;;;;4.45;1.88;;;;;;;10.30;100.00;99341.09;10499179;28;20088;-75
2023/11/01 19:37:05;;;;;;;2.53;1.95;;;;;;;10.23;100.00;99346.59;10500557;28;20037;-75
2023/11/01 19:42:06;;;;;;;4.68;1.73;;;;;;;10.17;100.00;99339.41;10499677;28;20029;-76
2023/11/01 19:47:07;;;;;;;4.93;1.88;;;;;;;10.19;100.00;99345.41;10500943;28;20102;-76
2023/11/01 19:52:07;;;;;;;4.07;2.95;;;;;;;10.18;100.00;99361.91;10499314;28;20086;-76
2023/11/01 19:57:08;;;;;;;3.55;2.20;;;;;;;10.11;100.00;99331.41;10500096;28;20032;-75
2023/11/01 20:02:09;;;;;;;1.95;1.83;;;;;;;10.04;100.00;99325.28;10498156;28;20037;-76
2023/11/01 20:07:09;;;;;;;4.40;2.13;;;;;;;10.08;100.00;99326.47;10515307;28;20035;-75
2023/11/01 20:12:11;;;;;;;7.28;3.05;;;;;;;10.04;100.00;99325.28;10481075;28;20040;-75
2023/11/01 20:17:11;;;;;;;4.68;2.22;;;;;;;9.99;100.00;99316.00;10499084;28;20124;-76
2023/11/01 20:22:12;;;;;;;2.35;2.00;;;;;;;9.96;100.00;99304.81;10503005;28;20439;-76
2023/11/01 20:27:12;;;;;;;7.68;3.58;;;;;;;9.92;100.00;99296.34;10496591;28;20456;-76
2023/11/01 20:32:13;;;;;;;6.80;2.75;;;;;;;9.92;100.00;99276.59;10501876;28;20117;-78
2023/11/01 20:37:13;;;;;;;5.45;2.53;;;;;;;9.83;100.00;99270.72;10503354;28;20060;-75
2023/11/01 20:42:14;;;;;;;11.82;3.65;;;;;;;9.84;100.00;99260.72;10522721;28;20050;-77
2023/11/01 20:47:15;;;;;;;10.20;3.75;;;;;;;9.77;100.00;99258.13;10512328;28;20135;-75
2023/11/01 20:52:16;;;;;;;9.57;2.88;;;;;;;9.72;100.00;99248.00;10512406;28;20033;-75
2023/11/01 20:57:18;;;;;;;3.97;3.13;;;;;;;9.57;100.00;99239.50;10496773;28;20033;-75
2023/11/01 21:02:19;;;;;;;4.15;2.70;;;;;;;9.51;100.00;99230.47;10494492;28;20513;-75
2023/11/01 21:07:22;;;;;;;6.18;2.53;;;;;;;9.57;100.00;99234.09;10495602;28;20059;-74
2023/11/01 21:12:22;;;;;;;8.77;2.92;;;;;;;9.44;100.00;99228.91;10495372;28;20044;-76
2023/11/01 21:17:22;;;;;;;5.00;2.72;;;;;;;9.44;100.00;99224.31;10500464;28;20037;-75
2023/11/01 21:22:23;;;;;;;14.73;3.13;;;;;;;9.46;100.00;99226.78;10493262;28;20067;-74
2023/11/01 21:27:23;;;;;;;5.57;2.70;;;;;;;9.31;100.00;99217.22;10495760;28;20518;-75
2023/11/01 21:32:24;;;;;;;3.33;2.85;;;;;;;9.30;100.00;99206.66;10494418;28;20041;-76
2023/11/01 21:37:24;;;;;;;12.63;3.17;;;;;;;9.27;100.00;99191.75;10494316;28;20033;-74
2023/11/01 21:42:25;;;;;;;3.97;1.85;;;;;;;9.23;100.00;99189.75;10494916;28;20103;-75
2023/11/01 21:47:36;;;;;;;5.57;2.28;;;;;;;9.27;100.00;99180.94;10468964;28;20020;-75
2023/11/01 21:52:37;;;;;;;8.32;2.42;;;;;;;9.11;100.00;99170.78;10495489;28;20391;-74
2023/11/01 21:57:37;;;;;;;9.82;3.85;;;;;;;9.22;100.00;99153.81;10495239;28;20039;-75
2023/11/01 22:02:48;;;;;;;7.95;3.17;;;;;;;9.23;100.00;99149.22;10494713;28;20039;-75
2023/11/01 22:07:49;;;;;;;2.75;1.88;;;;;;;9.31;100.00;99136.19;10494227;28;20050;-74
2023/11/01 22:12:49;;;;;;;2.85;1.88;;;;;;;9.35;100.00;99106.00;10493903;28;20033;-75
2023/11/01 22:17:50;;;;;;;4.32;2.60;;;;;;;9.21;100.00;99100.00;10498709;28;20082;-75
2023/11/01 22:22:56;;;;;;;6.15;2.85;;;;;;;9.26;100.00;99087.47;10503407;28;20041;-75
2023/11/01 22:27:59;;;;;;;8.43;2.43;;;;;;;9.27;100.00;99074.78;10502556;28;20039;-75
2023/11/01 22:33:05;;;;;;;3.92;1.73;;;;;;;9.22;100.00;99064.69;10520777;28;20110;-75
2023/11/01 22:38:06;;;;;;;4.00;2.67;;;;;;;9.13;100.00;99051.75;10501175;28;20559;-76
2023/11/01 22:43:07;;;;;;;5.05;2.53;;;;;;;9.16;100.00;99045.91;10500458;28;20119;-76
2023/11/01 22:48:08;;;;;;;3.05;2.83;;;;;;;9.07;100.00;99024.63;10502388;28;20327;-76
2023/11/01 22:53:08;;;;;;;3.15;2.00;;;;;;;9.00;100.00;99017.72;10502575;28;20029;-76
2023/11/01 22:58:09;;;;;;;7.63;3.40;;;;;;;9.03;100.00;99017.22;10502647;28;20110;-76
2023/11/01 23:03:11;;;;;;;3.75;2.72;;;;;;;9.03;100.00;99001.00;10499465;28;20033;-76